createdAt,value
2022-08-22T00:01:12.080Z,3.65
2022-08-22T00:02:55.205Z,5.05
2022-08-22T00:03:12.013Z,3.33
2022-08-22T00:04:51.606Z,8.35
2022-08-22T00:08:09.837Z,3.53
2022-08-22T00:11:53.824Z,5.10
2022-08-22T00:15:08.112Z,7.18
2022-08-22T00:18:32.506Z,3.50
2022-08-22T00:21:44.393Z,3.10
2022-08-22T00:25:04.921Z,4.87
2022-08-22T00:28:17.528Z,3.40
2022-08-22T00:31:29.077Z,3.45
2022-08-22T00:34:46.497Z,3.30
2022-08-22T00:37:59.959Z,2.97
2022-08-22T00:41:31.687Z,4.05
2022-08-22T00:44:58.598Z,3.35
2022-08-22T00:48:18.095Z,6.65
2022-08-22T00:51:50.735Z,2.42
2022-08-22T00:55:14.744Z,2.90
2022-08-22T00:58:39.356Z,2.37
2022-08-22T01:01:52.760Z,2.92
2022-08-22T01:05:13.728Z,2.67
2022-08-22T01:08:22.051Z,2.20
2022-08-22T01:11:51.875Z,2.40
2022-08-22T01:15:07.870Z,4.28
2022-08-22T01:18:19.277Z,4.53
2022-08-22T01:21:46.934Z,4.28
2022-08-22T01:25:20.913Z,3.67
2022-08-22T01:28:46.497Z,3.08
2022-08-22T01:32:17.503Z,2.78
2022-08-22T01:35:39.742Z,5.28
2022-08-22T01:38:41.851Z,2.42
2022-08-22T01:41:56.243Z,3.78
2022-08-22T01:45:17.223Z,2.25
2022-08-22T01:48:37.853Z,1.98
2022-08-22T01:51:40.017Z,7.07
2022-08-22T01:54:45.163Z,2.00
2022-08-22T01:57:57.992Z,2.72
2022-08-22T02:01:08.445Z,3.55
2022-08-22T02:04:31.257Z,6.53
2022-08-22T02:07:48.722Z,4.90
2022-08-22T02:11:01.878Z,2.17
2022-08-22T02:14:26.014Z,2.12
2022-08-22T02:17:31.775Z,2.58
2022-08-22T02:21:09.473Z,2.35
2022-08-22T02:24:33.067Z,2.35
2022-08-22T02:27:59.115Z,2.10
2022-08-22T02:31:16.947Z,2.05
2022-08-22T02:34:28.326Z,4.95
2022-08-22T02:38:13.326Z,2.42
2022-08-22T02:41:22.470Z,6.12
2022-08-22T02:44:30.736Z,6.55
2022-08-22T02:47:41.234Z,3.95
2022-08-22T02:51:01.779Z,3.62
2022-08-22T02:54:31.260Z,3.95
2022-08-22T02:57:39.656Z,2.40
2022-08-22T03:01:17.232Z,3.15
2022-08-22T03:04:31.545Z,4.70
2022-08-22T03:07:40.010Z,2.30
2022-08-22T03:10:49.217Z,5.28
2022-08-22T03:13:56.974Z,4.20
2022-08-22T03:17:23.347Z,2.85
2022-08-22T03:20:54.012Z,2.70
2022-08-22T03:24:04.876Z,3.28
2022-08-22T03:27:33.167Z,4.90
2022-08-22T03:30:45.831Z,5.40
2022-08-22T03:34:18.918Z,4.60
2022-08-22T03:37:35.852Z,6.43
2022-08-22T03:41:17.784Z,4.35
2022-08-22T03:44:45.254Z,5.55
2022-08-22T03:47:59.605Z,3.37
2022-08-22T03:51:19.484Z,4.05
2022-08-22T03:54:30.491Z,3.47
2022-08-22T04:01:08.259Z,4.15
2022-08-22T04:04:33.717Z,4.35
2022-08-22T04:07:54.571Z,9.38
2022-08-22T04:10:57.089Z,4.75
2022-08-22T04:14:24.514Z,5.10
2022-08-22T04:17:54.888Z,4.07
2022-08-22T04:21:29.287Z,6.12
2022-08-22T04:24:38.840Z,5.12
2022-08-22T04:27:59.767Z,5.32
2022-08-22T04:31:09.516Z,6.40
2022-08-22T04:34:30.707Z,5.97
2022-08-22T04:37:39.168Z,7.22
2022-08-22T04:40:46.922Z,6.45
2022-08-22T04:43:56.456Z,7.10
2022-08-22T04:47:18.330Z,6.43
2022-08-22T04:50:26.706Z,7.20
2022-08-22T04:53:41.374Z,5.97
2022-08-22T04:57:02.864Z,5.80
2022-08-22T05:00:08.419Z,5.87
2022-08-22T05:03:14.256Z,6.87
2022-08-22T05:06:19.796Z,6.03
2022-08-22T05:09:29.263Z,6.12
2022-08-22T05:12:34.591Z,6.75
2022-08-22T05:15:43.678Z,6.07
2022-08-22T05:18:53.994Z,10.60
2022-08-22T05:21:57.163Z,8.82
2022-08-22T05:25:11.011Z,11.12
2022-08-22T05:28:35.002Z,9.05
2022-08-22T05:31:48.145Z,10.15
2022-08-22T05:34:52.020Z,7.95
2022-08-22T05:37:55.102Z,6.85
2022-08-22T05:41:02.782Z,7.45
2022-08-22T05:44:13.719Z,8.70
2022-08-22T05:47:25.057Z,9.00
2022-08-22T05:50:53.445Z,6.82
2022-08-22T05:54:08.944Z,7.40
2022-08-22T05:57:29.929Z,6.05
2022-08-22T06:00:39.925Z,11.55
2022-08-22T06:04:06.234Z,6.73
2022-08-22T06:07:23.941Z,10.60
2022-08-22T06:10:29.740Z,5.57
2022-08-22T06:13:43.146Z,6.43
2022-08-22T06:16:57.923Z,9.68
2022-08-22T06:20:00.340Z,7.75
2022-08-22T06:23:03.398Z,8.45
2022-08-22T06:26:06.634Z,6.35
2022-08-22T06:29:40.194Z,6.53
2022-08-22T06:32:59.739Z,8.77
2022-08-22T06:36:26.418Z,8.35
2022-08-22T06:39:41.137Z,10.35
2022-08-22T06:42:47.314Z,9.75
2022-08-22T06:45:50.061Z,8.05
2022-08-22T06:48:54.920Z,9.60
2022-08-22T06:52:00.871Z,8.60
2022-08-22T06:55:07.184Z,8.25
2022-08-22T06:58:17.028Z,10.52
2022-08-22T07:01:26.144Z,10.07
2022-08-22T07:04:29.178Z,9.77
2022-08-22T07:07:31.632Z,7.55
2022-08-22T07:10:33.989Z,7.25
2022-08-22T07:13:38.544Z,6.97
2022-08-22T07:16:55.178Z,7.57
2022-08-22T07:20:08.038Z,8.18
2022-08-22T07:23:12.904Z,7.28
2022-08-22T07:26:21.092Z,7.57
2022-08-22T07:29:32.563Z,9.50
2022-08-22T07:32:42.011Z,11.55
2022-08-22T07:35:53.034Z,9.30
2022-08-22T07:39:11.213Z,9.73
2022-08-22T07:42:21.655Z,9.55
2022-08-22T07:45:59.917Z,9.23
2022-08-22T07:49:32.747Z,6.80
2022-08-22T07:52:42.670Z,10.35
2022-08-22T07:55:49.356Z,9.00
2022-08-22T07:59:14.665Z,8.18
2022-08-22T08:02:18.895Z,9.00
2022-08-22T08:05:24.024Z,11.10
2022-08-22T08:08:41.780Z,7.53
2022-08-22T08:11:44.967Z,11.25
2022-08-22T08:14:51.848Z,9.32
2022-08-22T08:17:58.495Z,7.43
2022-08-22T08:21:04.921Z,7.78
2022-08-22T08:24:09.135Z,9.10
2022-08-22T08:27:40.311Z,10.45
2022-08-22T08:30:52.421Z,7.90
2022-08-22T08:34:05.221Z,7.93
2022-08-22T08:37:45.118Z,7.12
2022-08-22T08:40:57.397Z,6.75
2022-08-22T08:44:18.069Z,8.27
2022-08-22T08:47:33.279Z,11.20
2022-08-22T08:50:49.874Z,10.15
2022-08-22T08:54:09.562Z,6.43
2022-08-22T08:57:26.857Z,7.68
2022-08-22T09:00:51.125Z,6.85
2022-08-22T09:04:22.548Z,8.65
2022-08-22T09:07:32.721Z,6.37
2022-08-22T09:11:14.280Z,6.67
2022-08-22T09:14:34.694Z,6.03
2022-08-22T09:17:44.748Z,4.20
2022-08-22T09:20:49.718Z,7.20
2022-08-22T09:24:04.140Z,4.93
2022-08-22T09:27:34.009Z,4.45
2022-08-22T09:31:21.953Z,6.25
2022-08-22T09:34:43.756Z,5.78
2022-08-22T09:38:26.847Z,5.47
2022-08-22T09:41:45.096Z,6.32
2022-08-22T09:45:19.444Z,6.90
2022-08-22T09:48:40.121Z,6.53
2022-08-22T09:52:14.375Z,5.53
2022-08-22T09:55:38.861Z,6.35
2022-08-22T09:58:47.956Z,5.65
2022-08-22T10:02:00.237Z,6.22
2022-08-22T10:05:07.718Z,5.47
2022-08-22T10:08:14.797Z,4.30
2022-08-22T10:11:50.099Z,6.15
2022-08-22T10:15:07.012Z,6.37
2022-08-22T10:18:30.953Z,7.12
2022-08-22T10:21:46.782Z,4.78
2022-08-22T10:25:04.985Z,6.80
2022-08-22T10:28:28.538Z,4.78
2022-08-22T10:31:35.243Z,5.37
2022-08-22T10:34:50.695Z,4.57
2022-08-22T10:37:55.216Z,5.20
2022-08-22T10:41:08.827Z,6.07
2022-08-22T10:44:31.706Z,6.62
2022-08-22T10:48:39.895Z,4.82
2022-08-22T10:51:47.220Z,9.02
2022-08-22T10:55:11.695Z,4.30
2022-08-22T10:58:19.002Z,3.90
2022-08-22T11:01:38.330Z,5.00
2022-08-22T11:04:54.345Z,6.03
2022-08-22T11:08:00.564Z,5.68
2022-08-22T11:11:22.863Z,4.95
2022-08-22T11:14:46.916Z,4.62
2022-08-22T11:18:01.208Z,4.07
2022-08-22T11:21:07.470Z,6.75
2022-08-22T11:24:36.153Z,8.68
2022-08-22T11:28:03.961Z,4.75
2022-08-22T11:31:31.750Z,6.72
2022-08-22T11:34:51.057Z,5.35
2022-08-22T11:38:00.972Z,5.53
2022-08-22T11:41:07.979Z,4.50
2022-08-22T11:44:18.859Z,5.00
2022-08-22T11:50:36.670Z,5.62
2022-08-22T11:53:44.082Z,4.70
2022-08-22T11:56:54.247Z,4.68
2022-08-22T12:00:13.362Z,8.18
2022-08-22T12:03:37.007Z,5.20
2022-08-22T12:06:49.754Z,6.62
2022-08-22T12:10:13.963Z,6.68
2022-08-22T12:13:49.251Z,6.40
2022-08-22T12:16:54.343Z,5.82
2022-08-22T12:20:16.754Z,6.15
2022-08-22T12:23:43.293Z,8.05
2022-08-22T12:27:06.481Z,6.65
2022-08-22T12:30:17.225Z,5.25
2022-08-22T12:33:55.609Z,5.57
2022-08-22T12:37:39.804Z,8.70
2022-08-22T12:41:28.219Z,7.78
2022-08-22T12:45:02.398Z,8.70
2022-08-22T12:48:45.373Z,6.03
2022-08-22T12:52:14.900Z,7.75
2022-08-22T12:55:33.300Z,6.45
2022-08-22T12:58:57.531Z,7.40
2022-08-22T13:02:03.283Z,4.78
2022-08-22T13:05:13.816Z,8.10
2022-08-22T13:08:31.332Z,5.87
2022-08-22T13:11:37.836Z,7.20
2022-08-22T13:14:41.243Z,8.88
2022-08-22T13:17:44.626Z,5.00
2022-08-22T13:20:50.594Z,4.05
2022-08-22T13:23:54.709Z,5.30
2022-08-22T13:27:00.962Z,4.85
2022-08-22T13:30:17.376Z,3.78
2022-08-22T13:33:26.666Z,5.37
2022-08-22T13:36:30.630Z,4.72
2022-08-22T13:39:36.210Z,4.15
2022-08-22T13:42:50.445Z,3.97
2022-08-22T13:46:01.985Z,4.57
2022-08-22T13:49:10.322Z,5.70
2022-08-22T13:52:29.590Z,9.85
2022-08-22T13:55:49.510Z,5.43
2022-08-22T13:58:56.407Z,11.95
2022-08-22T14:02:09.169Z,7.57
2022-08-22T14:05:24.949Z,6.97
2022-08-22T14:08:28.717Z,10.63
2022-08-22T14:11:38.828Z,8.68
2022-08-22T14:14:46.797Z,5.77
2022-08-22T14:17:52.051Z,7.32
2022-08-22T14:21:40.796Z,7.95
2022-08-22T14:24:47.730Z,11.82
2022-08-22T14:28:09.047Z,8.77
2022-08-22T14:31:13.849Z,9.95
2022-08-22T14:34:16.595Z,8.00
2022-08-22T14:37:23.051Z,8.30
2022-08-22T14:40:29.701Z,11.77
2022-08-22T14:43:31.986Z,9.77
2022-08-22T14:46:43.921Z,9.75
2022-08-22T14:49:57.127Z,9.55
2022-08-22T14:53:12.150Z,10.98
2022-08-22T14:56:19.519Z,8.38
2022-08-22T14:59:40.484Z,7.22
2022-08-22T15:02:42.868Z,6.37
2022-08-22T15:05:58.396Z,7.47
2022-08-22T15:09:02.136Z,6.78
2022-08-22T15:12:47.658Z,7.12
2022-08-22T15:15:54.421Z,7.78
2022-08-22T15:19:00.035Z,5.25
2022-08-22T15:22:21.034Z,5.25
2022-08-22T15:28:28.022Z,8.13
2022-08-22T15:31:46.835Z,6.18
2022-08-22T15:34:52.234Z,3.78
2022-08-22T15:38:04.106Z,3.33
2022-08-22T15:41:25.267Z,4.75
2022-08-22T15:44:36.357Z,3.22
2022-08-22T15:47:41.343Z,4.00
2022-08-22T15:51:05.021Z,5.22
2022-08-22T15:54:34.825Z,5.53
2022-08-22T15:57:39.263Z,6.07
2022-08-22T16:00:45.565Z,3.75
2022-08-22T16:04:14.587Z,4.28
2022-08-22T16:07:45.915Z,7.72
2022-08-22T16:10:53.822Z,3.62
2022-08-22T16:14:16.390Z,2.60
2022-08-22T16:17:30.757Z,1.85
2022-08-22T16:20:32.916Z,4.55
2022-08-22T16:23:50.147Z,2.25
2022-08-22T16:26:54.336Z,3.78
2022-08-22T16:30:08.127Z,2.60
2022-08-22T16:33:17.853Z,2.78
2022-08-22T16:36:21.018Z,2.95
2022-08-22T16:39:23.200Z,3.15
2022-08-22T16:42:28.860Z,3.12
2022-08-22T16:45:35.858Z,4.00
2022-08-22T16:48:39.602Z,2.67
2022-08-22T16:52:23.179Z,2.25
2022-08-22T16:55:31.335Z,3.33
2022-08-22T16:59:13.870Z,11.20
2022-08-22T17:02:57.154Z,3.20
2022-08-22T17:06:36.802Z,3.58
2022-08-22T17:10:02.499Z,3.03
2022-08-22T17:13:07.593Z,3.65
2022-08-22T17:17:02.719Z,2.45
2022-08-22T17:20:38.454Z,2.25
2022-08-22T17:23:51.016Z,2.00
2022-08-22T17:26:59.102Z,3.60
2022-08-22T17:30:09.467Z,1.42
2022-08-22T17:33:11.768Z,2.17
2022-08-22T17:36:27.566Z,3.67
2022-08-22T17:39:55.676Z,3.30
2022-08-22T17:42:58.609Z,1.42
2022-08-22T17:46:13.653Z,1.80
2022-08-22T17:49:50.282Z,2.25
2022-08-22T17:53:02.778Z,2.67
2022-08-22T17:56:41.056Z,2.47
2022-08-22T17:59:50.545Z,4.07
2022-08-22T18:03:23.263Z,3.45
2022-08-22T18:06:31.036Z,3.15
2022-08-22T18:09:46.727Z,3.95
2022-08-22T18:13:06.183Z,4.10
2022-08-22T18:16:23.195Z,6.47
2022-08-22T18:19:46.826Z,4.93
2022-08-22T18:22:57.067Z,4.57
2022-08-22T18:26:31.626Z,13.30
2022-08-22T18:29:44.294Z,4.40
2022-08-22T18:33:42.163Z,5.97
2022-08-22T18:37:06.129Z,3.87
2022-08-22T18:40:08.461Z,6.20
2022-08-22T18:43:17.937Z,6.72
2022-08-22T18:46:32.088Z,6.68
2022-08-22T18:49:34.283Z,5.80
2022-08-22T18:52:38.073Z,4.35
2022-08-22T18:55:56.212Z,4.80
2022-08-22T18:59:07.492Z,6.47
2022-08-22T19:02:21.690Z,5.97
2022-08-22T19:05:51.700Z,7.95
2022-08-22T19:09:20.213Z,8.55
2022-08-22T19:12:25.946Z,5.07
2022-08-22T19:15:55.306Z,5.82
2022-08-22T19:18:58.698Z,4.78
2022-08-22T19:22:19.521Z,4.12
2022-08-22T19:25:28.091Z,3.65
2022-08-22T19:28:36.997Z,3.15
2022-08-22T19:31:41.165Z,4.93
2022-08-22T19:34:46.881Z,6.53
2022-08-22T19:37:56.722Z,6.07
2022-08-22T19:40:59.418Z,5.62
2022-08-22T19:44:04.389Z,7.40
2022-08-22T19:47:18.894Z,6.18
2022-08-22T19:50:21.338Z,3.90
2022-08-22T19:53:44.440Z,3.60
2022-08-22T19:57:05.055Z,5.93
2022-08-22T20:00:18.222Z,5.22
2022-08-22T20:03:26.374Z,6.20
2022-08-22T20:06:44.104Z,6.57
2022-08-22T20:10:09.592Z,3.22
2022-08-22T20:13:24.363Z,4.32
2022-08-22T20:16:59.351Z,7.78
2022-08-22T20:20:17.344Z,3.42
2022-08-22T20:23:27.490Z,5.25
2022-08-22T20:26:30.106Z,4.55
2022-08-22T20:29:36.418Z,4.97
2022-08-22T20:32:58.073Z,4.85
2022-08-22T20:36:18.526Z,6.85
2022-08-22T20:39:39.499Z,5.07
2022-08-22T20:42:45.431Z,4.43
2022-08-22T20:45:57.627Z,3.87
2022-08-22T20:49:01.534Z,5.82
2022-08-22T20:52:23.759Z,6.95
2022-08-22T20:55:31.614Z,6.00
2022-08-22T20:58:38.888Z,3.87
2022-08-22T21:01:41.285Z,2.67
2022-08-22T21:05:00.225Z,3.60
2022-08-22T21:08:10.595Z,3.58
2022-08-22T21:11:43.407Z,4.07
2022-08-22T21:14:48.921Z,4.22
2022-08-22T21:17:51.343Z,6.37
2022-08-22T21:20:54.004Z,3.75
2022-08-22T21:24:06.371Z,7.28
2022-08-22T21:27:09.331Z,5.25
2022-08-22T21:30:12.147Z,6.37
2022-08-22T21:33:23.712Z,5.25
2022-08-22T21:36:30.359Z,4.95
2022-08-22T21:39:40.826Z,4.80
2022-08-22T21:42:57.818Z,4.18
2022-08-22T21:46:00.205Z,4.68
2022-08-22T21:49:05.022Z,5.00
2022-08-22T21:52:07.257Z,7.45
2022-08-22T21:55:23.462Z,7.05
2022-08-22T21:58:36.709Z,4.37
2022-08-22T22:01:42.754Z,5.55
2022-08-22T22:04:48.101Z,5.15
2022-08-22T22:07:51.928Z,5.57
2022-08-22T22:10:56.502Z,5.07
2022-08-22T22:13:58.969Z,4.35
2022-08-22T22:17:01.173Z,4.93
2022-08-22T22:20:04.503Z,7.47
2022-08-22T22:23:07.305Z,8.30
2022-08-22T22:26:10.055Z,6.22
2022-08-22T22:29:12.293Z,5.15
2022-08-22T22:32:15.270Z,4.95
2022-08-22T22:35:18.009Z,5.37
2022-08-22T22:38:24.110Z,3.78
2022-08-22T22:41:26.866Z,5.25
2022-08-22T22:44:29.058Z,6.70
2022-08-22T22:47:33.049Z,2.95
2022-08-22T22:50:40.664Z,7.10
2022-08-22T22:53:43.838Z,3.92
2022-08-22T22:56:47.983Z,5.37
2022-08-22T22:59:50.385Z,4.57
2022-08-22T23:02:53.348Z,5.53
2022-08-22T23:05:55.557Z,5.90
2022-08-22T23:08:58.283Z,3.50
2022-08-22T23:12:01.197Z,4.10
2022-08-22T23:15:05.433Z,4.22
2022-08-22T23:18:07.651Z,7.30
2022-08-22T23:21:23.128Z,5.55
2022-08-22T23:24:26.623Z,6.97
2022-08-22T23:27:28.858Z,5.55
2022-08-22T23:30:31.783Z,5.60
2022-08-22T23:33:35.277Z,5.12
2022-08-22T23:36:38.342Z,6.53
2022-08-22T23:39:41.070Z,5.37
2022-08-22T23:42:43.373Z,3.90
2022-08-22T23:45:45.581Z,5.70
2022-08-22T23:48:48.260Z,8.63
2022-08-22T23:51:51.025Z,8.95
2022-08-22T23:54:54.620Z,11.30
2022-08-22T23:57:58.257Z,9.15
